sensor_id;sensor_type;location;lat;lon;timestamp;temperature;humidity
40177;DHT22;31511;46.176;9.874;2023-03-23T00:02:14;12.80;99.90
40177;DHT22;31511;46.176;9.874;2023-03-23T00:05:00;12.90;99.90
40177;DHT22;31511;46.176;9.874;2023-03-23T00:07:44;13.30;99.90
40177;DHT22;31511;46.176;9.874;2023-03-23T00:10:29;13.00;99.90
40177;DHT22;31511;46.176;9.874;2023-03-23T00:13:17;12.90;99.90
40177;DHT22;31511;46.176;9.874;2023-03-23T00:16:03;12.90;99.90
40177;DHT22;31511;46.176;9.874;2023-03-23T00:18:49;12.80;99.90
40177;DHT22;31511;46.176;9.874;2023-03-23T00:21:37;12.60;99.90
40177;DHT22;31511;46.176;9.874;2023-03-23T00:24:23;12.60;99.90
40177;DHT22;31511;46.176;9.874;2023-03-23T00:27:09;12.80;99.90
40177;DHT22;31511;46.176;9.874;2023-03-23T00:29:56;12.90;99.90
40177;DHT22;31511;46.176;9.874;2023-03-23T00:32:41;12.80;99.90
40177;DHT22;31511;46.176;9.874;2023-03-23T00:35:26;12.80;99.90
40177;DHT22;31511;46.176;9.874;2023-03-23T00:38:12;12.60;99.90
40177;DHT22;31511;46.176;9.874;2023-03-23T00:40:56;12.50;99.90
40177;DHT22;31511;46.176;9.874;2023-03-23T00:43:41;12.50;99.90
40177;DHT22;31511;46.176;9.874;2023-03-23T00:46:26;12.40;99.90
40177;DHT22;31511;46.176;9.874;2023-03-23T00:49:12;12.30;99.90
40177;DHT22;31511;46.176;9.874;2023-03-23T00:51:57;12.30;99.90
40177;DHT22;31511;46.176;9.874;2023-03-23T00:54:42;12.40;99.90
40177;DHT22;31511;46.176;9.874;2023-03-23T00:57:27;12.40;99.90
40177;DHT22;31511;46.176;9.874;2023-03-23T01:00:12;12.40;99.90
40177;DHT22;31511;46.176;9.874;2023-03-23T01:02:56;12.40;99.90
40177;DHT22;31511;46.176;9.874;2023-03-23T01:05:41;12.60;99.90
40177;DHT22;31511;46.176;9.874;2023-03-23T01:08:27;12.40;99.90
40177;DHT22;31511;46.176;9.874;2023-03-23T01:11:15;12.40;99.90
40177;DHT22;31511;46.176;9.874;2023-03-23T01:14:00;12.50;99.90
40177;DHT22;31511;46.176;9.874;2023-03-23T01:16:45;12.40;99.90
40177;DHT22;31511;46.176;9.874;2023-03-23T01:19:29;12.50;99.90
40177;DHT22;31511;46.176;9.874;2023-03-23T01:22:13;12.20;99.90
40177;DHT22;31511;46.176;9.874;2023-03-23T01:24:58;12.30;99.90
40177;DHT22;31511;46.176;9.874;2023-03-23T01:27:43;12.30;99.90
40177;DHT22;31511;46.176;9.874;2023-03-23T01:30:27;12.30;99.90
40177;DHT22;31511;46.176;9.874;2023-03-23T01:33:11;12.20;99.90
40177;DHT22;31511;46.176;9.874;2023-03-23T01:35:56;12.00;99.90
40177;DHT22;31511;46.176;9.874;2023-03-23T01:38:42;12.10;99.90
40177;DHT22;31511;46.176;9.874;2023-03-23T01:41:27;12.00;99.90
40177;DHT22;31511;46.176;9.874;2023-03-23T01:46:57;12.00;99.90
40177;DHT22;31511;46.176;9.874;2023-03-23T01:49:42;11.90;99.90
40177;DHT22;31511;46.176;9.874;2023-03-23T01:52:29;12.00;99.90
40177;DHT22;31511;46.176;9.874;2023-03-23T01:55:14;12.10;99.90
40177;DHT22;31511;46.176;9.874;2023-03-23T01:58:00;12.00;99.90
40177;DHT22;31511;46.176;9.874;2023-03-23T02:00:44;11.80;99.90
40177;DHT22;31511;46.176;9.874;2023-03-23T02:03:29;11.70;99.90
40177;DHT22;31511;46.176;9.874;2023-03-23T02:06:16;11.80;99.90
40177;DHT22;31511;46.176;9.874;2023-03-23T02:09:01;11.60;99.90
40177;DHT22;31511;46.176;9.874;2023-03-23T02:11:45;11.60;99.90
40177;DHT22;31511;46.176;9.874;2023-03-23T02:14:32;11.70;99.90
40177;DHT22;31511;46.176;9.874;2023-03-23T02:17:29;11.60;99.90
40177;DHT22;31511;46.176;9.874;2023-03-23T02:23:18;11.60;99.90
40177;DHT22;31511;46.176;9.874;2023-03-23T02:26:38;12.00;99.90
40177;DHT22;31511;46.176;9.874;2023-03-23T02:34:50;11.80;99.90
40177;DHT22;31511;46.176;9.874;2023-03-23T02:37:37;11.60;99.90
40177;DHT22;31511;46.176;9.874;2023-03-23T02:40:36;11.60;99.90
40177;DHT22;31511;46.176;9.874;2023-03-23T02:43:25;11.70;99.90
40177;DHT22;31511;46.176;9.874;2023-03-23T02:46:11;11.80;99.90
40177;DHT22;31511;46.176;9.874;2023-03-23T02:48:57;11.70;99.90
40177;DHT22;31511;46.176;9.874;2023-03-23T02:51:43;11.50;99.90
40177;DHT22;31511;46.176;9.874;2023-03-23T02:54:29;11.80;99.90
40177;DHT22;31511;46.176;9.874;2023-03-23T02:57:14;11.80;99.90
40177;DHT22;31511;46.176;9.874;2023-03-23T03:00:00;11.70;99.90
40177;DHT22;31511;46.176;9.874;2023-03-23T03:02:45;11.50;99.90
40177;DHT22;31511;46.176;9.874;2023-03-23T03:11:24;11.60;99.90
40177;DHT22;31511;46.176;9.874;2023-03-23T03:14:10;11.60;99.90
40177;DHT22;31511;46.176;9.874;2023-03-23T03:17:03;11.70;99.90
40177;DHT22;31511;46.176;9.874;2023-03-23T03:19:58;11.80;99.90
40177;DHT22;31511;46.176;9.874;2023-03-23T03:22:43;11.90;99.90
40177;DHT22;31511;46.176;9.874;2023-03-23T03:25:29;11.70;99.90
40177;DHT22;31511;46.176;9.874;2023-03-23T03:28:15;11.70;99.90
40177;DHT22;31511;46.176;9.874;2023-03-23T03:31:01;11.70;99.90
40177;DHT22;31511;46.176;9.874;2023-03-23T03:33:46;11.70;99.90
40177;DHT22;31511;46.176;9.874;2023-03-23T03:36:33;11.60;99.90
40177;DHT22;31511;46.176;9.874;2023-03-23T03:39:22;11.40;99.90
40177;DHT22;31511;46.176;9.874;2023-03-23T03:42:08;11.30;99.90
40177;DHT22;31511;46.176;9.874;2023-03-23T03:44:52;11.40;99.90
40177;DHT22;31511;46.176;9.874;2023-03-23T03:47:37;11.40;99.90
40177;DHT22;31511;46.176;9.874;2023-03-23T03:50:22;11.40;99.90
40177;DHT22;31511;46.176;9.874;2023-03-23T03:53:08;11.40;99.90
40177;DHT22;31511;46.176;9.874;2023-03-23T03:55:53;11.40;99.90
40177;DHT22;31511;46.176;9.874;2023-03-23T03:58:43;11.50;99.90
40177;DHT22;31511;46.176;9.874;2023-03-23T04:01:29;11.70;99.90
40177;DHT22;31511;46.176;9.874;2023-03-23T04:04:14;11.80;99.90
40177;DHT22;31511;46.176;9.874;2023-03-23T04:06:59;12.00;99.90
40177;DHT22;31511;46.176;9.874;2023-03-23T04:09:43;12.00;99.90
40177;DHT22;31511;46.176;9.874;2023-03-23T04:12:30;11.90;99.90
40177;DHT22;31511;46.176;9.874;2023-03-23T04:15:15;11.80;99.90
40177;DHT22;31511;46.176;9.874;2023-03-23T04:17:59;11.80;99.90
40177;DHT22;31511;46.176;9.874;2023-03-23T04:20:45;11.70;99.90
40177;DHT22;31511;46.176;9.874;2023-03-23T04:23:31;11.40;99.90
40177;DHT22;31511;46.176;9.874;2023-03-23T04:26:17;11.30;99.90
40177;DHT22;31511;46.176;9.874;2023-03-23T04:29:02;11.20;99.90
40177;DHT22;31511;46.176;9.874;2023-03-23T04:31:46;11.30;99.90
40177;DHT22;31511;46.176;9.874;2023-03-23T04:34:31;11.00;99.90
40177;DHT22;31511;46.176;9.874;2023-03-23T04:37:17;11.10;99.90
40177;DHT22;31511;46.176;9.874;2023-03-23T04:40:01;11.10;99.90
40177;DHT22;31511;46.176;9.874;2023-03-23T04:42:50;11.20;99.90
40177;DHT22;31511;46.176;9.874;2023-03-23T04:45:35;11.20;99.90
40177;DHT22;31511;46.176;9.874;2023-03-23T04:48:26;11.30;99.90
40177;DHT22;31511;46.176;9.874;2023-03-23T04:51:12;11.10;99.90
40177;DHT22;31511;46.176;9.874;2023-03-23T04:53:56;10.90;99.90
40177;DHT22;31511;46.176;9.874;2023-03-23T04:56:41;10.90;99.90
40177;DHT22;31511;46.176;9.874;2023-03-23T04:59:26;10.90;99.90
40177;DHT22;31511;46.176;9.874;2023-03-23T05:02:12;10.90;99.90
40177;DHT22;31511;46.176;9.874;2023-03-23T05:04:57;10.90;99.90
40177;DHT22;31511;46.176;9.874;2023-03-23T05:07:42;10.80;99.90
40177;DHT22;31511;46.176;9.874;2023-03-23T05:10:27;11.00;99.90
40177;DHT22;31511;46.176;9.874;2023-03-23T05:13:13;11.10;99.90
40177;DHT22;31511;46.176;9.874;2023-03-23T05:15:58;11.00;99.90
40177;DHT22;31511;46.176;9.874;2023-03-23T05:18:46;10.90;99.90
40177;DHT22;31511;46.176;9.874;2023-03-23T05:21:31;10.80;99.90
40177;DHT22;31511;46.176;9.874;2023-03-23T05:24:16;11.10;99.90
40177;DHT22;31511;46.176;9.874;2023-03-23T05:27:01;11.00;99.90
40177;DHT22;31511;46.176;9.874;2023-03-23T05:29:47;11.00;99.90
40177;DHT22;31511;46.176;9.874;2023-03-23T05:32:35;10.90;99.90
40177;DHT22;31511;46.176;9.874;2023-03-23T05:35:22;11.00;99.90
40177;DHT22;31511;46.176;9.874;2023-03-23T05:38:07;11.00;99.90
40177;DHT22;31511;46.176;9.874;2023-03-23T05:40:52;10.90;99.90
40177;DHT22;31511;46.176;9.874;2023-03-23T05:43:37;11.20;99.90
40177;DHT22;31511;46.176;9.874;2023-03-23T05:46:22;11.20;99.90
40177;DHT22;31511;46.176;9.874;2023-03-23T05:49:07;11.10;99.90
40177;DHT22;31511;46.176;9.874;2023-03-23T05:51:52;11.20;99.90
40177;DHT22;31511;46.176;9.874;2023-03-23T05:54:37;11.20;99.90
40177;DHT22;31511;46.176;9.874;2023-03-23T05:57:22;11.40;99.90
40177;DHT22;31511;46.176;9.874;2023-03-23T06:00:08;11.40;99.90
40177;DHT22;31511;46.176;9.874;2023-03-23T06:02:58;11.20;99.90
40177;DHT22;31511;46.176;9.874;2023-03-23T06:05:44;11.30;99.90
40177;DHT22;31511;46.176;9.874;2023-03-23T06:08:29;11.40;99.90
40177;DHT22;31511;46.176;9.874;2023-03-23T06:11:15;11.40;99.90
40177;DHT22;31511;46.176;9.874;2023-03-23T06:14:01;11.50;99.90
40177;DHT22;31511;46.176;9.874;2023-03-23T06:16:45;11.30;99.90
40177;DHT22;31511;46.176;9.874;2023-03-23T06:19:29;11.10;99.90
40177;DHT22;31511;46.176;9.874;2023-03-23T06:22:14;11.00;99.90
40177;DHT22;31511;46.176;9.874;2023-03-23T06:24:59;11.20;99.90
40177;DHT22;31511;46.176;9.874;2023-03-23T06:27:44;11.40;99.90
40177;DHT22;31511;46.176;9.874;2023-03-23T06:30:30;11.70;99.90
40177;DHT22;31511;46.176;9.874;2023-03-23T06:33:14;11.50;99.90
40177;DHT22;31511;46.176;9.874;2023-03-23T06:35:59;11.50;99.90
40177;DHT22;31511;46.176;9.874;2023-03-23T06:38:44;11.90;99.90
40177;DHT22;31511;46.176;9.874;2023-03-23T06:41:30;12.10;99.90
40177;DHT22;31511;46.176;9.874;2023-03-23T06:44:14;12.30;99.90
40177;DHT22;31511;46.176;9.874;2023-03-23T06:46:59;12.20;99.90
40177;DHT22;31511;46.176;9.874;2023-03-23T06:49:44;12.20;99.90
40177;DHT22;31511;46.176;9.874;2023-03-23T06:52:29;12.10;99.90
40177;DHT22;31511;46.176;9.874;2023-03-23T06:55:14;12.20;99.90
40177;DHT22;31511;46.176;9.874;2023-03-23T06:58:00;12.40;99.90
40177;DHT22;31511;46.176;9.874;2023-03-23T07:00:45;12.20;99.90
40177;DHT22;31511;46.176;9.874;2023-03-23T07:03:30;12.40;99.90
40177;DHT22;31511;46.176;9.874;2023-03-23T07:06:15;12.20;99.90
40177;DHT22;31511;46.176;9.874;2023-03-23T07:09:00;12.20;99.90
40177;DHT22;31511;46.176;9.874;2023-03-23T07:11:44;12.10;99.90
40177;DHT22;31511;46.176;9.874;2023-03-23T07:14:31;11.90;99.90
40177;DHT22;31511;46.176;9.874;2023-03-23T07:17:15;12.00;99.90
40177;DHT22;31511;46.176;9.874;2023-03-23T07:20:00;12.00;99.90
40177;DHT22;31511;46.176;9.874;2023-03-23T07:22:44;12.10;99.90
40177;DHT22;31511;46.176;9.874;2023-03-23T07:25:29;12.30;99.90
40177;DHT22;31511;46.176;9.874;2023-03-23T07:28:14;12.50;99.90
40177;DHT22;31511;46.176;9.874;2023-03-23T07:31:00;12.70;99.90
40177;DHT22;31511;46.176;9.874;2023-03-23T07:33:44;12.80;99.90
40177;DHT22;31511;46.176;9.874;2023-03-23T07:36:30;13.00;99.90
40177;DHT22;31511;46.176;9.874;2023-03-23T07:39:14;12.90;99.90
40177;DHT22;31511;46.176;9.874;2023-03-23T07:42:00;13.00;99.90
40177;DHT22;31511;46.176;9.874;2023-03-23T07:44:44;13.30;99.90
40177;DHT22;31511;46.176;9.874;2023-03-23T07:47:29;13.20;99.90
40177;DHT22;31511;46.176;9.874;2023-03-23T07:50:15;13.30;99.90
40177;DHT22;31511;46.176;9.874;2023-03-23T07:53:00;13.50;99.90
40177;DHT22;31511;46.176;9.874;2023-03-23T07:55:45;13.40;99.90
40177;DHT22;31511;46.176;9.874;2023-03-23T07:58:29;13.60;99.90
40177;DHT22;31511;46.176;9.874;2023-03-23T08:01:14;13.60;99.90
40177;DHT22;31511;46.176;9.874;2023-03-23T08:04:00;13.60;99.90
40177;DHT22;31511;46.176;9.874;2023-03-23T08:06:44;13.90;99.90
40177;DHT22;31511;46.176;9.874;2023-03-23T08:09:30;14.30;99.90
40177;DHT22;31511;46.176;9.874;2023-03-23T08:12:15;14.80;99.90
40177;DHT22;31511;46.176;9.874;2023-03-23T08:15:00;14.70;99.90
40177;DHT22;31511;46.176;9.874;2023-03-23T08:17:45;15.10;99.90
40177;DHT22;31511;46.176;9.874;2023-03-23T08:20:30;15.00;99.90
40177;DHT22;31511;46.176;9.874;2023-03-23T08:23:15;15.00;99.90
40177;DHT22;31511;46.176;9.874;2023-03-23T08:26:04;14.80;99.90
40177;DHT22;31511;46.176;9.874;2023-03-23T08:28:50;14.60;99.90
40177;DHT22;31511;46.176;9.874;2023-03-23T08:31:34;14.30;99.90
40177;DHT22;31511;46.176;9.874;2023-03-23T08:34:19;14.10;99.90
40177;DHT22;31511;46.176;9.874;2023-03-23T08:37:03;14.10;99.90
40177;DHT22;31511;46.176;9.874;2023-03-23T08:39:52;14.00;99.90
40177;DHT22;31511;46.176;9.874;2023-03-23T08:42:37;14.20;99.90
40177;DHT22;31511;46.176;9.874;2023-03-23T08:45:24;14.30;99.90
40177;DHT22;31511;46.176;9.874;2023-03-23T08:48:10;14.50;99.90
40177;DHT22;31511;46.176;9.874;2023-03-23T08:50:55;14.40;99.90
40177;DHT22;31511;46.176;9.874;2023-03-23T08:53:39;14.70;99.90
40177;DHT22;31511;46.176;9.874;2023-03-23T08:56:27;15.00;99.90
40177;DHT22;31511;46.176;9.874;2023-03-23T08:59:12;15.10;99.90
40177;DHT22;31511;46.176;9.874;2023-03-23T09:01:57;15.40;99.90
40177;DHT22;31511;46.176;9.874;2023-03-23T09:04:42;15.50;99.90
40177;DHT22;31511;46.176;9.874;2023-03-23T09:07:28;15.80;99.90
40177;DHT22;31511;46.176;9.874;2023-03-23T09:10:13;15.80;99.90
40177;DHT22;31511;46.176;9.874;2023-03-23T09:12:59;16.20;99.90
40177;DHT22;31511;46.176;9.874;2023-03-23T09:15:44;16.20;99.90
40177;DHT22;31511;46.176;9.874;2023-03-23T09:18:30;16.20;99.90
40177;DHT22;31511;46.176;9.874;2023-03-23T09:21:16;16.30;99.90
40177;DHT22;31511;46.176;9.874;2023-03-23T09:24:01;16.20;99.90
40177;DHT22;31511;46.176;9.874;2023-03-23T09:26:46;16.50;99.90
40177;DHT22;31511;46.176;9.874;2023-03-23T09:29:31;16.70;99.90
40177;DHT22;31511;46.176;9.874;2023-03-23T09:32:15;16.60;99.90
40177;DHT22;31511;46.176;9.874;2023-03-23T09:35:05;17.00;99.90
40177;DHT22;31511;46.176;9.874;2023-03-23T09:37:52;17.40;99.90
40177;DHT22;31511;46.176;9.874;2023-03-23T09:40:45;17.30;99.90
40177;DHT22;31511;46.176;9.874;2023-03-23T09:46:39;17.50;99.90
40177;DHT22;31511;46.176;9.874;2023-03-23T09:50:14;17.40;99.90
40177;DHT22;31511;46.176;9.874;2023-03-23T09:52:36;17.50;99.90
40177;DHT22;31511;46.176;9.874;2023-03-23T09:55:23;17.60;99.90
40177;DHT22;31511;46.176;9.874;2023-03-23T10:01:23;24.10;99.90
40177;DHT22;31511;46.176;9.874;2023-03-23T10:04:28;27.40;99.90
40177;DHT22;31511;46.176;9.874;2023-03-23T10:07:12;29.40;99.90
40177;DHT22;31511;46.176;9.874;2023-03-23T10:09:59;28.50;99.90
40177;DHT22;31511;46.176;9.874;2023-03-23T10:12:52;28.90;99.90
40177;DHT22;31511;46.176;9.874;2023-03-23T10:15:40;28.60;99.90
40177;DHT22;31511;46.176;9.874;2023-03-23T10:18:47;28.00;99.90
40177;DHT22;31511;46.176;9.874;2023-03-23T10:21:31;28.20;99.90
40177;DHT22;31511;46.176;9.874;2023-03-23T10:24:19;25.80;99.90
40177;DHT22;31511;46.176;9.874;2023-03-23T10:29:57;22.40;99.90
40177;DHT22;31511;46.176;9.874;2023-03-23T10:32:44;21.60;99.90
40177;DHT22;31511;46.176;9.874;2023-03-23T10:35:42;22.30;99.90
40177;DHT22;31511;46.176;9.874;2023-03-23T10:38:41;22.20;99.90
40177;DHT22;31511;46.176;9.874;2023-03-23T10:41:28;22.40;99.90
40177;DHT22;31511;46.176;9.874;2023-03-23T10:44:18;22.80;99.90
40177;DHT22;31511;46.176;9.874;2023-03-23T10:47:04;24.40;99.90
40177;DHT22;31511;46.176;9.874;2023-03-23T10:49:54;27.60;99.90
40177;DHT22;31511;46.176;9.874;2023-03-23T10:52:39;30.20;99.90
40177;DHT22;31511;46.176;9.874;2023-03-23T10:55:34;28.90;99.90
40177;DHT22;31511;46.176;9.874;2023-03-23T10:58:37;31.50;99.90
40177;DHT22;31511;46.176;9.874;2023-03-23T11:01:30;30.00;99.90
40177;DHT22;31511;46.176;9.874;2023-03-23T11:04:16;31.40;99.90
40177;DHT22;31511;46.176;9.874;2023-03-23T11:07:01;31.30;99.90
40177;DHT22;31511;46.176;9.874;2023-03-23T11:09:51;32.80;99.90
40177;DHT22;31511;46.176;9.874;2023-03-23T11:12:35;31.00;99.90
40177;DHT22;31511;46.176;9.874;2023-03-23T11:15:23;29.40;99.90
40177;DHT22;31511;46.176;9.874;2023-03-23T11:18:17;27.90;99.90
40177;DHT22;31511;46.176;9.874;2023-03-23T11:21:03;28.40;99.90
40177;DHT22;31511;46.176;9.874;2023-03-23T11:23:57;30.30;99.90
40177;DHT22;31511;46.176;9.874;2023-03-23T11:26:43;27.50;99.90
40177;DHT22;31511;46.176;9.874;2023-03-23T11:29:29;23.90;99.90
40177;DHT22;31511;46.176;9.874;2023-03-23T11:32:15;22.00;99.90
40177;DHT22;31511;46.176;9.874;2023-03-23T11:35:01;21.00;99.90
40177;DHT22;31511;46.176;9.874;2023-03-23T11:37:52;21.50;99.90
40177;DHT22;31511;46.176;9.874;2023-03-23T11:40:43;24.70;99.90
40177;DHT22;31511;46.176;9.874;2023-03-23T11:43:29;23.50;99.90
40177;DHT22;31511;46.176;9.874;2023-03-23T11:49:55;23.40;99.90
40177;DHT22;31511;46.176;9.874;2023-03-23T11:52:29;23.50;99.90
40177;DHT22;31511;46.176;9.874;2023-03-23T11:55:22;25.00;99.90
40177;DHT22;31511;46.176;9.874;2023-03-23T11:58:13;23.60;99.90
40177;DHT22;31511;46.176;9.874;2023-03-23T12:01:04;23.40;99.90
40177;DHT22;31511;46.176;9.874;2023-03-23T12:12:45;28.00;99.90
40177;DHT22;31511;46.176;9.874;2023-03-23T12:18:48;28.50;99.90
40177;DHT22;31511;46.176;9.874;2023-03-23T12:24:49;26.30;99.90
40177;DHT22;31511;46.176;9.874;2023-03-23T12:27:40;25.00;99.90
40177;DHT22;31511;46.176;9.874;2023-03-23T12:33:20;25.40;99.90
40177;DHT22;31511;46.176;9.874;2023-03-23T12:36:11;24.00;99.90
40177;DHT22;31511;46.176;9.874;2023-03-23T12:39:03;25.20;99.90
40177;DHT22;31511;46.176;9.874;2023-03-23T12:41:52;25.80;99.90
40177;DHT22;31511;46.176;9.874;2023-03-23T12:45:37;27.20;99.90
40177;DHT22;31511;46.176;9.874;2023-03-23T12:47:47;28.50;99.90
40177;DHT22;31511;46.176;9.874;2023-03-23T12:53:58;28.80;99.90
40177;DHT22;31511;46.176;9.874;2023-03-23T13:02:23;26.70;99.90
40177;DHT22;31511;46.176;9.874;2023-03-23T13:08:12;26.20;99.90
40177;DHT22;31511;46.176;9.874;2023-03-23T13:11:00;24.60;99.90
40177;DHT22;31511;46.176;9.874;2023-03-23T13:19:24;24.10;99.90
40177;DHT22;31511;46.176;9.874;2023-03-23T13:22:18;24.10;99.90
40177;DHT22;31511;46.176;9.874;2023-03-23T13:25:07;23.60;99.90
40177;DHT22;31511;46.176;9.874;2023-03-23T13:27:57;23.90;99.90
40177;DHT22;31511;46.176;9.874;2023-03-23T13:30:52;24.20;99.90
40177;DHT22;31511;46.176;9.874;2023-03-23T13:33:36;23.90;99.90
40177;DHT22;31511;46.176;9.874;2023-03-23T13:36:29;24.10;99.90
40177;DHT22;31511;46.176;9.874;2023-03-23T13:39:18;24.40;99.90
40177;DHT22;31511;46.176;9.874;2023-03-23T13:47:39;26.70;99.90
40177;DHT22;31511;46.176;9.874;2023-03-23T13:50:26;26.70;99.90
40177;DHT22;31511;46.176;9.874;2023-03-23T13:53:20;27.10;99.90
40177;DHT22;31511;46.176;9.874;2023-03-23T13:59:28;27.10;99.90
40177;DHT22;31511;46.176;9.874;2023-03-23T14:02:31;28.10;99.90
40177;DHT22;31511;46.176;9.874;2023-03-23T14:10:54;28.30;99.90
40177;DHT22;31511;46.176;9.874;2023-03-23T14:16:40;27.50;99.90
40177;DHT22;31511;46.176;9.874;2023-03-23T14:19:27;28.20;99.90
40177;DHT22;31511;46.176;9.874;2023-03-23T14:22:22;27.30;99.90
40177;DHT22;31511;46.176;9.874;2023-03-23T14:25:12;29.30;99.90
40177;DHT22;31511;46.176;9.874;2023-03-23T14:27:57;28.30;99.90
40177;DHT22;31511;46.176;9.874;2023-03-23T14:30:41;27.80;99.90
40177;DHT22;31511;46.176;9.874;2023-03-23T14:33:27;27.10;99.90
40177;DHT22;31511;46.176;9.874;2023-03-23T14:36:18;25.40;99.90
40177;DHT22;31511;46.176;9.874;2023-03-23T14:39:24;24.80;99.90
40177;DHT22;31511;46.176;9.874;2023-03-23T14:42:13;24.20;99.90
40177;DHT22;31511;46.176;9.874;2023-03-23T14:44:59;24.20;99.90
40177;DHT22;31511;46.176;9.874;2023-03-23T14:47:45;23.60;99.90
40177;DHT22;31511;46.176;9.874;2023-03-23T14:50:36;23.80;99.90
40177;DHT22;31511;46.176;9.874;2023-03-23T14:53:22;23.30;99.90
40177;DHT22;31511;46.176;9.874;2023-03-23T14:56:14;23.00;99.90
40177;DHT22;31511;46.176;9.874;2023-03-23T14:59:03;22.90;99.90
40177;DHT22;31511;46.176;9.874;2023-03-23T15:01:47;22.70;99.90
40177;DHT22;31511;46.176;9.874;2023-03-23T15:04:33;22.70;99.90
40177;DHT22;31511;46.176;9.874;2023-03-23T15:07:17;22.80;99.90
40177;DHT22;31511;46.176;9.874;2023-03-23T15:10:07;22.70;99.90
40177;DHT22;31511;46.176;9.874;2023-03-23T15:12:52;22.60;99.90
40177;DHT22;31511;46.176;9.874;2023-03-23T15:15:41;22.60;99.90
40177;DHT22;31511;46.176;9.874;2023-03-23T15:18:36;22.20;99.90
40177;DHT22;31511;46.176;9.874;2023-03-23T15:27:13;21.90;99.90
40177;DHT22;31511;46.176;9.874;2023-03-23T15:30:45;21.30;99.90
40177;DHT22;31511;46.176;9.874;2023-03-23T15:33:04;21.30;99.90
40177;DHT22;31511;46.176;9.874;2023-03-23T15:35:49;21.40;99.90
40177;DHT22;31511;46.176;9.874;2023-03-23T15:38:34;21.70;99.90
40177;DHT22;31511;46.176;9.874;2023-03-23T15:41:26;21.60;99.90
40177;DHT22;31511;46.176;9.874;2023-03-23T15:44:19;21.60;99.90
40177;DHT22;31511;46.176;9.874;2023-03-23T15:47:18;21.40;99.90
40177;DHT22;31511;46.176;9.874;2023-03-23T15:50:11;21.10;99.90
40177;DHT22;31511;46.176;9.874;2023-03-23T15:52:56;21.10;99.90
40177;DHT22;31511;46.176;9.874;2023-03-23T15:55:40;21.10;99.90
40177;DHT22;31511;46.176;9.874;2023-03-23T15:58:27;21.00;99.90
40177;DHT22;31511;46.176;9.874;2023-03-23T16:01:16;20.80;99.90
40177;DHT22;31511;46.176;9.874;2023-03-23T16:04:06;20.90;99.90
40177;DHT22;31511;46.176;9.874;2023-03-23T16:06:52;21.00;99.90
40177;DHT22;31511;46.176;9.874;2023-03-23T16:09:39;21.10;99.90
40177;DHT22;31511;46.176;9.874;2023-03-23T16:12:27;21.10;99.90
40177;DHT22;31511;46.176;9.874;2023-03-23T16:15:13;21.20;99.90
40177;DHT22;31511;46.176;9.874;2023-03-23T16:17:59;21.00;99.90
40177;DHT22;31511;46.176;9.874;2023-03-23T16:20:43;20.70;99.90
40177;DHT22;31511;46.176;9.874;2023-03-23T16:23:28;20.50;99.90
40177;DHT22;31511;46.176;9.874;2023-03-23T16:26:13;20.50;99.90
40177;DHT22;31511;46.176;9.874;2023-03-23T16:28:58;20.20;99.90
40177;DHT22;31511;46.176;9.874;2023-03-23T16:31:42;20.10;99.90
40177;DHT22;31511;46.176;9.874;2023-03-23T16:34:27;20.00;99.90
40177;DHT22;31511;46.176;9.874;2023-03-23T16:37:16;20.30;99.90
40177;DHT22;31511;46.176;9.874;2023-03-23T16:40:01;20.00;99.90
40177;DHT22;31511;46.176;9.874;2023-03-23T16:42:46;20.00;99.90
40177;DHT22;31511;46.176;9.874;2023-03-23T16:45:31;20.10;99.90
40177;DHT22;31511;46.176;9.874;2023-03-23T16:48:16;19.90;99.90
40177;DHT22;31511;46.176;9.874;2023-03-23T16:51:00;19.80;99.90
40177;DHT22;31511;46.176;9.874;2023-03-23T16:53:44;19.80;99.90
40177;DHT22;31511;46.176;9.874;2023-03-23T16:56:30;19.80;99.90
40177;DHT22;31511;46.176;9.874;2023-03-23T16:59:15;19.80;99.90
40177;DHT22;31511;46.176;9.874;2023-03-23T17:02:00;19.60;99.90
40177;DHT22;31511;46.176;9.874;2023-03-23T17:04:46;19.60;99.90
40177;DHT22;31511;46.176;9.874;2023-03-23T17:07:30;19.50;99.90
40177;DHT22;31511;46.176;9.874;2023-03-23T17:10:15;19.40;99.90
40177;DHT22;31511;46.176;9.874;2023-03-23T17:13:00;19.30;99.90
40177;DHT22;31511;46.176;9.874;2023-03-23T17:15:45;19.30;99.90
40177;DHT22;31511;46.176;9.874;2023-03-23T17:18:30;19.30;99.90
40177;DHT22;31511;46.176;9.874;2023-03-23T17:21:15;19.00;99.90
40177;DHT22;31511;46.176;9.874;2023-03-23T17:24:00;19.00;99.90
40177;DHT22;31511;46.176;9.874;2023-03-23T17:26:44;19.00;99.90
40177;DHT22;31511;46.176;9.874;2023-03-23T17:29:30;19.00;99.90
40177;DHT22;31511;46.176;9.874;2023-03-23T17:32:15;19.00;99.90
40177;DHT22;31511;46.176;9.874;2023-03-23T17:35:00;19.00;99.90
40177;DHT22;31511;46.176;9.874;2023-03-23T17:37:44;18.90;99.90
40177;DHT22;31511;46.176;9.874;2023-03-23T17:40:29;18.80;99.90
40177;DHT22;31511;46.176;9.874;2023-03-23T17:43:14;18.80;99.90
40177;DHT22;31511;46.176;9.874;2023-03-23T17:45:59;18.80;99.90
40177;DHT22;31511;46.176;9.874;2023-03-23T17:48:43;18.70;99.90
40177;DHT22;31511;46.176;9.874;2023-03-23T17:51:29;18.60;99.90
40177;DHT22;31511;46.176;9.874;2023-03-23T17:54:14;18.60;99.90
40177;DHT22;31511;46.176;9.874;2023-03-23T17:56:59;18.60;99.90
40177;DHT22;31511;46.176;9.874;2023-03-23T17:59:46;18.40;99.90
40177;DHT22;31511;46.176;9.874;2023-03-23T18:02:30;18.30;99.90
40177;DHT22;31511;46.176;9.874;2023-03-23T18:05:15;18.20;99.90
40177;DHT22;31511;46.176;9.874;2023-03-23T18:08:00;18.30;99.90
40177;DHT22;31511;46.176;9.874;2023-03-23T18:10:44;18.30;99.90
40177;DHT22;31511;46.176;9.874;2023-03-23T18:13:30;18.30;99.90
40177;DHT22;31511;46.176;9.874;2023-03-23T18:16:15;18.10;99.90
40177;DHT22;31511;46.176;9.874;2023-03-23T18:19:00;18.00;99.90
40177;DHT22;31511;46.176;9.874;2023-03-23T18:21:44;18.00;99.90
40177;DHT22;31511;46.176;9.874;2023-03-23T18:24:29;18.10;99.90
40177;DHT22;31511;46.176;9.874;2023-03-23T18:27:13;18.20;99.90
40177;DHT22;31511;46.176;9.874;2023-03-23T18:29:58;18.10;99.90
40177;DHT22;31511;46.176;9.874;2023-03-23T18:32:42;18.00;99.90
40177;DHT22;31511;46.176;9.874;2023-03-23T18:35:28;18.10;99.90
40177;DHT22;31511;46.176;9.874;2023-03-23T18:38:14;17.90;99.90
40177;DHT22;31511;46.176;9.874;2023-03-23T18:40:59;18.00;99.90
40177;DHT22;31511;46.176;9.874;2023-03-23T18:43:44;18.10;99.90
40177;DHT22;31511;46.176;9.874;2023-03-23T18:46:29;18.30;99.90
40177;DHT22;31511;46.176;9.874;2023-03-23T18:49:14;18.30;99.90
40177;DHT22;31511;46.176;9.874;2023-03-23T18:51:59;18.30;99.90
40177;DHT22;31511;46.176;9.874;2023-03-23T18:54:43;18.20;99.90
40177;DHT22;31511;46.176;9.874;2023-03-23T18:57:29;18.10;99.90
40177;DHT22;31511;46.176;9.874;2023-03-23T19:00:14;17.70;99.90
40177;DHT22;31511;46.176;9.874;2023-03-23T19:02:58;17.90;99.90